Aeroporto :
LOGIN :

Iscrizione | Disclaimer

   EN    FR    IT 

 










Sommario :    VFR   VFR Marginale   IFR   IFR Intensivo   IFR Molto Intensivo
Visibilità : 
Base nubi : 
>= 8 km
>= 3000ft
5 / 8 km
1000 / 3000 ft
1500m / 5 km
500 / 1000 ft
800 / 1500m
200 / 500 ft
< 800m
< 200 ft
Simboli :   Temporali  Nebbia  Neve Forte  Precipitazioni Forti  Vento > 20 kt
SIGMETs :   Varie  Temporali  Ghiacco  Turbolenza  Onda orograficha  Ceneri Vulcaniche






- Altitudine del aeroporto : 390 ft
- Codice IATA : NQY


EGHQ - Newquay

ULTIMO METAR :
  • 191850Z 23019KT 9999 SCT024 BKN044 09/07 Q1016

METARs OBSOLETI :
  • 191820Z 22018KT 9999 BKN014 09/07 Q1017
  • 191750Z 23018KT 9999 SCT017 BKN035 09/07 Q1017
  • 191720Z 23018KT 9999 FEW017 BKN036 10/07 Q1017
  • 191650Z 23019G29KT 9999 FEW038 BKN049 10/06 Q1017
  • 191620Z 23019KT 9999 FEW018 BKN049 10/07 Q1017

TAF TAF EGHQ
Valido dal 19 a 18 ore il 20 a 03 ore UTC


191708Z 1918/2003 23018KT 9999 BKN030
TEMPO 1918/2003 23024G34KT
PROB30
TEMPO 1918/2003 9000 -SHRA BKN014



MetMap, La meteo Aeronautica in un colpo d'occhio ! - Copyright ORBIFLY Dicembre 2007 - Disclaimer

ORBIFLY MET'MAP TEAM :

Programmazione e sviluppo : Alexandra Zaïnal
Concezione : Baudouin d'Aumeries
Aiuto per la programmazione : Marc-Olivier Méhu
Supporto tecnico e logistico : Manuel Goepfert
Aiuto per la traduzione : Arnaldo La Scala

Contatto : metmap@orbifly.com




FONTI E CREDITI :

   NOAA